createdAt,value
2018-04-14T00:02:20.865Z,2.20
2018-04-14T00:04:49.775Z,2.40
2018-04-14T00:07:18.636Z,1.90
2018-04-14T00:09:47.507Z,1.90
2018-04-14T00:12:16.399Z,1.80
2018-04-14T00:14:45.268Z,1.70
2018-04-14T00:17:14.127Z,1.90
2018-04-14T00:19:43.004Z,2.00
2018-04-14T00:22:11.865Z,2.10
2018-04-14T00:24:40.749Z,2.10
2018-04-14T00:27:09.643Z,2.20
2018-04-14T00:29:39.164Z,1.90
2018-04-14T00:32:08.824Z,1.37
2018-04-14T00:34:37.688Z,1.57
2018-04-14T00:37:06.560Z,1.37
2018-04-14T00:39:35.470Z,1.50
2018-04-14T00:42:04.323Z,1.47
2018-04-14T00:44:33.190Z,1.30
2018-04-14T00:47:02.091Z,1.50
2018-04-14T00:49:30.951Z,1.33
2018-04-14T00:51:59.821Z,1.40
2018-04-14T00:54:28.715Z,1.60
2018-04-14T00:56:57.592Z,1.63
2018-04-14T00:59:26.456Z,2.10
2018-04-14T01:01:55.348Z,2.00
2018-04-14T01:04:24.978Z,2.17
2018-04-14T01:06:53.839Z,1.90
2018-04-14T01:09:22.725Z,1.90
2018-04-14T01:11:51.624Z,1.70
2018-04-14T01:14:20.479Z,1.70
2018-04-14T01:16:49.331Z,1.50
2018-04-14T01:19:18.245Z,1.57
2018-04-14T01:21:47.156Z,1.80
2018-04-14T01:24:16.051Z,1.80
2018-04-14T01:26:45.672Z,1.73
2018-04-14T01:29:14.555Z,1.60
2018-04-14T01:31:43.413Z,1.43
2018-04-14T01:34:12.308Z,1.60
2018-04-14T01:36:41.172Z,1.43
2018-04-14T01:39:10.041Z,1.60
2018-04-14T01:41:38.943Z,1.63
2018-04-14T01:44:07.795Z,1.73
2018-04-14T01:46:36.672Z,1.93
2018-04-14T01:49:05.572Z,1.53
2018-04-14T01:51:34.439Z,1.77
2018-04-14T01:54:03.291Z,1.70
2018-04-14T01:56:32.183Z,1.70
2018-04-14T01:59:01.036Z,1.70
2018-04-14T02:01:29.891Z,1.70
2018-04-14T02:03:58.819Z,1.50
2018-04-14T02:06:27.677Z,1.80
2018-04-14T02:08:56.623Z,1.90
2018-04-14T02:11:25.555Z,1.70
2018-04-14T02:13:54.412Z,1.70
2018-04-14T02:16:23.269Z,1.60
2018-04-14T02:18:52.180Z,1.80
2018-04-14T02:21:21.043Z,1.60
2018-04-14T02:23:49.897Z,1.70
2018-04-14T02:26:18.800Z,1.77
2018-04-14T02:28:47.687Z,1.90
2018-04-14T02:31:16.593Z,1.73
2018-04-14T02:33:45.481Z,2.80
2018-04-14T02:36:14.351Z,2.40
2018-04-14T02:38:43.235Z,2.00
2018-04-14T02:41:12.111Z,1.67
2018-04-14T02:43:41.008Z,1.63
2018-04-14T02:46:09.911Z,1.90
2018-04-14T02:48:38.764Z,1.80
2018-04-14T02:51:07.645Z,1.80
2018-04-14T02:53:36.519Z,1.70
2018-04-14T02:56:05.432Z,1.50
2018-04-14T02:58:34.301Z,1.50
2018-04-14T03:01:03.943Z,1.60
2018-04-14T03:03:32.839Z,1.90
2018-04-14T03:06:02.048Z,1.87
2018-04-14T03:08:31.683Z,1.93
2018-04-14T03:11:00.579Z,2.27
2018-04-14T03:13:29.439Z,1.80
2018-04-14T03:15:58.300Z,1.87
2018-04-14T03:18:27.202Z,1.50
2018-04-14T03:20:56.057Z,1.93
2018-04-14T03:23:24.935Z,1.80
2018-04-14T03:25:53.842Z,1.80
2018-04-14T03:28:22.696Z,2.00
2018-04-14T03:30:51.556Z,2.00
2018-04-14T03:33:20.434Z,2.57
2018-04-14T03:35:49.324Z,2.30
2018-04-14T03:38:18.192Z,2.60
2018-04-14T03:40:47.047Z,3.63
2018-04-14T03:43:15.942Z,2.67
2018-04-14T03:45:44.803Z,2.40
2018-04-14T03:48:13.660Z,2.30
2018-04-14T03:50:42.555Z,1.80
2018-04-14T03:53:12.185Z,1.90
2018-04-14T03:55:41.830Z,1.70
2018-04-14T03:58:10.727Z,1.90
2018-04-14T04:00:39.591Z,2.00
2018-04-14T04:03:08.456Z,1.97
2018-04-14T04:05:37.330Z,2.00
2018-04-14T04:08:06.955Z,1.97
2018-04-14T04:10:35.838Z,2.43
2018-04-14T04:13:04.699Z,2.40
2018-04-14T04:15:33.560Z,2.17
2018-04-14T04:18:02.440Z,2.70
2018-04-14T04:21:02.958Z,2.23
2018-04-14T04:23:50.809Z,2.80
2018-04-14T04:26:20.450Z,1.73
2018-04-14T04:28:49.307Z,2.10
2018-04-14T04:31:18.196Z,2.23
2018-04-14T04:33:47.060Z,2.47
2018-04-14T04:36:15.925Z,3.50
2018-04-14T04:38:44.821Z,3.43
2018-04-14T04:41:13.702Z,4.03
2018-04-14T04:43:42.564Z,3.33
2018-04-14T04:46:11.460Z,2.80
2018-04-14T04:48:40.362Z,2.60
2018-04-14T04:51:09.994Z,2.20
2018-04-14T04:53:38.852Z,1.90
2018-04-14T04:56:07.735Z,2.90
2018-04-14T04:58:36.620Z,2.30
2018-04-14T05:01:05.513Z,1.80
2018-04-14T05:03:34.372Z,2.17
2018-04-14T05:06:03.238Z,2.10
2018-04-14T05:08:32.120Z,1.90
2018-04-14T05:11:00.995Z,2.10
2018-04-14T05:13:29.907Z,2.00
2018-04-14T05:15:58.778Z,1.83
2018-04-14T05:18:27.651Z,2.10
2018-04-14T05:20:56.547Z,2.40
2018-04-14T05:23:26.183Z,2.13
2018-04-14T05:25:55.052Z,1.90
2018-04-14T05:28:23.939Z,2.00
2018-04-14T05:30:52.843Z,1.90
2018-04-14T05:33:21.719Z,2.00
2018-04-14T05:35:50.592Z,2.10
2018-04-14T05:38:19.839Z,2.10
2018-04-14T05:40:48.738Z,2.20
2018-04-14T05:43:17.651Z,2.10
2018-04-14T05:45:47.280Z,2.30
2018-04-14T05:48:16.180Z,2.30
2018-04-14T05:50:45.053Z,2.47
2018-04-14T05:53:13.924Z,2.17
2018-04-14T05:55:43.583Z,1.60
2018-04-14T05:58:12.444Z,1.60
2018-04-14T06:00:41.313Z,1.80
2018-04-14T06:03:10.228Z,1.93
2018-04-14T06:05:39.098Z,2.10
2018-04-14T06:08:07.995Z,1.97
2018-04-14T06:10:36.891Z,2.20
2018-04-14T06:13:05.763Z,1.90
2018-04-14T06:15:34.633Z,2.30
2018-04-14T06:18:03.528Z,1.90
2018-04-14T06:20:33.163Z,2.47
2018-04-14T06:23:02.096Z,2.20
2018-04-14T06:25:31.753Z,1.87
2018-04-14T06:28:00.652Z,2.07
2018-04-14T06:30:29.543Z,2.00
2018-04-14T06:32:59.179Z,2.40
2018-04-14T06:35:28.840Z,2.30
2018-04-14T06:37:57.715Z,2.40
2018-04-14T06:40:26.604Z,2.33
2018-04-14T06:42:55.476Z,2.40
2018-04-14T06:45:24.367Z,2.20
2018-04-14T06:47:53.252Z,1.90
2018-04-14T06:50:22.167Z,1.90
2018-04-14T06:52:51.799Z,2.63
2018-04-14T06:55:20.707Z,2.27
2018-04-14T06:57:49.607Z,2.20
2018-04-14T07:00:19.255Z,2.17
2018-04-14T07:02:48.144Z,2.30
2018-04-14T07:05:17.027Z,2.83
2018-04-14T07:07:45.959Z,1.97
2018-04-14T07:10:14.847Z,1.70
2018-04-14T07:12:43.719Z,1.23
2018-04-14T07:15:12.624Z,1.27
2018-04-14T07:17:41.520Z,1.13
2018-04-14T07:20:10.387Z,1.37
2018-04-14T07:22:39.302Z,1.40
2018-04-14T07:25:08.177Z,1.30
2018-04-14T07:27:37.056Z,1.10
2018-04-14T07:30:05.990Z,1.23
2018-04-14T07:32:34.864Z,1.60
2018-04-14T07:35:03.775Z,1.53
2018-04-14T07:37:32.696Z,1.60
2018-04-14T07:40:01.599Z,1.60
2018-04-14T07:42:31.235Z,2.00
2018-04-14T07:45:00.154Z,2.20
2018-04-14T07:47:29.228Z,2.10
2018-04-14T07:49:58.143Z,2.00
2018-04-14T07:52:27.011Z,1.60
2018-04-14T07:54:56.647Z,1.80
2018-04-14T07:57:25.580Z,1.60
2018-04-14T07:59:55.224Z,1.77
2018-04-14T08:02:24.102Z,1.67
2018-04-14T08:04:53.014Z,1.40
2018-04-14T08:07:22.649Z,1.70
2018-04-14T08:09:51.514Z,1.60
2018-04-14T08:12:20.403Z,1.40
2018-04-14T08:14:49.267Z,1.80
2018-04-14T08:17:18.171Z,1.40
2018-04-14T08:19:47.058Z,1.83
2018-04-14T08:22:15.937Z,4.30
2018-04-14T08:24:44.892Z,2.03
2018-04-14T08:27:13.735Z,4.17
2018-04-14T08:29:42.603Z,2.10
2018-04-14T08:32:11.495Z,3.33
2018-04-14T08:34:40.364Z,1.50
2018-04-14T08:37:09.263Z,3.00
2018-04-14T08:39:38.135Z,23.27
2018-04-14T08:42:07.023Z,8.27
2018-04-14T08:44:35.919Z,2.13
2018-04-14T08:47:06.332Z,1.60
2018-04-14T08:49:35.964Z,5.47
2018-04-14T08:52:04.839Z,4.07
2018-04-14T08:54:33.727Z,1.40
2018-04-14T08:57:02.587Z,1.67
2018-04-14T08:59:31.474Z,1.60
2018-04-14T09:02:00.395Z,2.03
2018-04-14T09:04:30.033Z,1.70
2018-04-14T09:06:58.911Z,1.50
2018-04-14T09:09:27.817Z,5.57
2018-04-14T09:11:56.723Z,4.30
2018-04-14T09:14:26.369Z,2.93
2018-04-14T09:16:55.260Z,1.57
2018-04-14T09:19:24.149Z,1.53
2018-04-14T09:21:53.019Z,7.43
2018-04-14T09:24:21.932Z,16.33
2018-04-14T09:26:50.804Z,1.87
2018-04-14T09:29:19.667Z,1.50
2018-04-14T09:31:49.327Z,1.97
2018-04-14T09:34:18.192Z,1.30
2018-04-14T09:36:47.075Z,1.40
2018-04-14T09:39:15.979Z,1.23
2018-04-14T09:41:45.616Z,1.60
2018-04-14T09:44:14.499Z,5.93
2018-04-14T09:46:44.160Z,6.70
2018-04-14T09:49:13.052Z,4.97
2018-04-14T09:51:41.960Z,1.27
2018-04-14T09:54:10.822Z,2.10
2018-04-14T09:56:39.711Z,1.80
2018-04-14T09:59:08.599Z,1.33
2018-04-14T10:01:37.484Z,1.83
2018-04-14T10:04:07.169Z,2.87
2018-04-14T10:06:36.807Z,3.73
2018-04-14T10:09:05.796Z,4.77
2018-04-14T10:11:34.687Z,1.77
2018-04-14T10:14:03.583Z,1.67
2018-04-14T10:16:32.476Z,1.60
2018-04-14T10:19:02.265Z,4.40
2018-04-14T10:21:31.899Z,2.90
2018-04-14T10:24:00.767Z,2.30
2018-04-14T10:26:29.675Z,1.43
2018-04-14T10:28:58.545Z,2.80
2018-04-14T10:31:27.408Z,4.03
2018-04-14T10:34:00.915Z,3.77
2018-04-14T10:36:36.636Z,3.40
2018-04-14T10:39:08.171Z,7.70
2018-04-14T10:41:39.220Z,5.37
2018-04-14T10:44:08.679Z,3.13
2018-04-14T10:46:37.547Z,1.87
2018-04-14T10:49:06.451Z,2.00
2018-04-14T10:51:35.353Z,2.27
2018-04-14T10:54:04.979Z,2.57
2018-04-14T10:56:33.899Z,2.30
2018-04-14T10:59:02.815Z,1.30
2018-04-14T11:01:31.720Z,1.33
2018-04-14T11:04:00.595Z,1.00
2018-04-14T11:06:29.484Z,1.40
2018-04-14T11:08:58.362Z,11.83
2018-04-14T11:11:27.271Z,3.97
2018-04-14T11:13:56.907Z,3.20
2018-04-14T11:16:25.812Z,2.23
2018-04-14T11:18:54.732Z,2.20
2018-04-14T11:21:23.689Z,6.10
2018-04-14T11:23:53.325Z,1.40
2018-04-14T11:26:22.199Z,1.50
2018-04-14T11:28:51.090Z,1.30
2018-04-14T11:31:19.976Z,1.43
2018-04-14T11:33:48.883Z,1.00
2018-04-14T11:36:23.371Z,0.90
2018-04-14T11:38:52.264Z,1.30
2018-04-14T11:41:21.135Z,1.70
2018-04-14T11:43:50.032Z,3.50
2018-04-14T11:46:18.905Z,8.90
2018-04-14T11:48:47.771Z,7.93
2018-04-14T11:51:16.671Z,1.50
2018-04-14T11:53:45.564Z,3.13
2018-04-14T11:56:14.432Z,13.93
2018-04-14T11:58:43.331Z,2.97
2018-04-14T12:01:12.200Z,1.60
2018-04-14T12:03:41.098Z,1.30
2018-04-14T12:06:10.766Z,1.20
2018-04-14T12:08:39.637Z,1.20
2018-04-14T12:11:08.550Z,1.30
2018-04-14T12:13:37.429Z,1.07
2018-04-14T12:16:06.295Z,5.97
2018-04-14T12:18:35.942Z,4.20
2018-04-14T12:21:04.839Z,1.03
2018-04-14T12:23:33.729Z,8.63
2018-04-14T12:26:03.375Z,2.03
2018-04-14T12:28:32.264Z,1.20
2018-04-14T12:31:01.135Z,0.90
2018-04-14T12:33:30.048Z,1.27
2018-04-14T12:35:58.928Z,1.10
2018-04-14T12:38:28.594Z,1.00
2018-04-14T12:40:57.467Z,0.90
2018-04-14T12:43:26.340Z,1.10
2018-04-14T12:45:55.226Z,1.67
2018-04-14T12:48:24.888Z,8.73
2018-04-14T12:50:53.786Z,1.20
2018-04-14T12:53:23.444Z,1.10
2018-04-14T12:55:53.967Z,1.10
2018-04-14T12:58:22.831Z,1.30
2018-04-14T13:00:51.704Z,1.30
2018-04-14T13:03:20.599Z,1.20
2018-04-14T13:05:49.467Z,1.10
2018-04-14T13:08:19.140Z,1.10
2018-04-14T13:10:50.783Z,1.10
2018-04-14T13:13:19.702Z,1.10
2018-04-14T13:15:48.567Z,0.90
2018-04-14T13:18:17.434Z,1.10
2018-04-14T13:20:46.322Z,1.27
2018-04-14T13:23:15.244Z,1.47
2018-04-14T13:25:44.120Z,1.17
2018-04-14T13:28:13.004Z,1.13
2018-04-14T13:30:41.919Z,1.10
2018-04-14T13:33:10.858Z,1.30
2018-04-14T13:35:39.738Z,1.23
2018-04-14T13:38:08.628Z,1.33
2018-04-14T13:40:37.522Z,1.30
2018-04-14T13:43:06.386Z,1.30
2018-04-14T13:45:35.291Z,1.30
2018-04-14T13:48:04.953Z,1.20
2018-04-14T13:50:33.853Z,1.40
2018-04-14T13:53:03.511Z,1.20
2018-04-14T13:55:32.383Z,1.47
2018-04-14T13:58:01.251Z,1.13
2018-04-14T14:00:30.147Z,1.57
2018-04-14T14:02:59.058Z,1.30
2018-04-14T14:05:27.929Z,1.37
2018-04-14T14:07:57.559Z,1.63
2018-04-14T14:10:26.444Z,1.93
2018-04-14T14:12:55.310Z,1.17
2018-04-14T14:15:24.206Z,1.60
2018-04-14T14:17:53.151Z,1.40
2018-04-14T14:20:22.018Z,1.50
2018-04-14T14:22:50.884Z,1.50
2018-04-14T14:25:19.792Z,1.33
2018-04-14T14:27:48.658Z,1.60
2018-04-14T14:30:17.523Z,1.60
2018-04-14T14:32:46.443Z,1.50
2018-04-14T14:35:15.406Z,1.40
2018-04-14T14:37:44.279Z,1.53
2018-04-14T14:40:13.172Z,1.50
2018-04-14T14:42:42.095Z,1.50
2018-04-14T14:45:11.124Z,1.43
2018-04-14T14:47:40.911Z,1.63
2018-04-14T14:50:15.453Z,1.50
2018-04-14T14:52:45.119Z,1.70
2018-04-14T14:55:14.063Z,1.63
2018-04-14T14:57:42.940Z,1.70
2018-04-14T15:00:11.827Z,1.57
2018-04-14T15:02:40.785Z,1.63
2018-04-14T15:05:09.731Z,1.50
2018-04-14T15:07:38.690Z,1.57
2018-04-14T15:10:07.622Z,1.80
2018-04-14T15:12:36.540Z,2.10
2018-04-14T15:15:06.226Z,1.93
2018-04-14T15:17:35.188Z,1.70
2018-04-14T15:20:04.051Z,1.50
2018-04-14T15:22:32.947Z,1.60
2018-04-14T15:25:01.821Z,1.60
2018-04-14T15:27:30.691Z,1.70
2018-04-14T15:29:59.648Z,1.70
2018-04-14T15:32:28.555Z,1.60
2018-04-14T15:34:58.191Z,1.60
2018-04-14T15:37:27.131Z,1.70
2018-04-14T15:39:56.787Z,2.07
2018-04-14T15:42:25.675Z,1.90
2018-04-14T15:44:54.567Z,1.80
2018-04-14T15:47:24.240Z,1.70
2018-04-14T15:49:53.169Z,2.00
2018-04-14T15:52:22.046Z,1.87
2018-04-14T15:54:50.991Z,1.90
2018-04-14T15:57:20.760Z,1.90
2018-04-14T15:59:50.455Z,1.60
2018-04-14T16:02:19.368Z,1.60
2018-04-14T16:04:48.243Z,1.50
2018-04-14T16:07:17.122Z,1.90
2018-04-14T16:09:46.011Z,2.00
2018-04-14T16:12:15.127Z,2.10
2018-04-14T16:14:44.023Z,2.03
2018-04-14T16:17:13.671Z,1.70
2018-04-14T16:19:43.120Z,1.80
2018-04-14T16:22:12.123Z,1.53
2018-04-14T16:24:41.225Z,1.70
2018-04-14T16:27:10.340Z,1.77
2018-04-14T16:29:39.914Z,1.77
2018-04-14T16:32:09.047Z,1.73
2018-04-14T16:34:38.040Z,1.77
2018-04-14T16:37:07.858Z,2.00
2018-04-14T16:39:36.814Z,1.80
2018-04-14T16:42:05.683Z,2.10
2018-04-14T16:44:34.657Z,1.90
2018-04-14T16:47:03.547Z,1.80
2018-04-14T16:49:32.447Z,1.67
2018-04-14T16:52:01.341Z,1.70
2018-04-14T16:54:30.979Z,2.17
2018-04-14T16:56:59.883Z,2.03
2018-04-14T16:59:28.753Z,2.20
2018-04-14T17:01:57.623Z,2.00
2018-04-14T17:04:26.530Z,1.90
2018-04-14T17:06:55.449Z,1.73
2018-04-14T17:09:24.332Z,1.90
2018-04-14T17:11:53.223Z,1.70
2018-04-14T17:14:22.092Z,1.80
2018-04-14T17:16:50.956Z,2.50
2018-04-14T17:19:19.875Z,4.10
2018-04-14T17:21:49.675Z,3.17
2018-04-14T17:24:18.545Z,2.50
2018-04-14T17:26:48.198Z,1.87
2018-04-14T17:29:17.075Z,2.10
2018-04-14T17:31:45.951Z,3.13
2018-04-14T17:34:14.859Z,23.27
2018-04-14T17:36:43.738Z,17.83
2018-04-14T17:39:12.643Z,8.37
2018-04-14T17:41:41.515Z,4.53
2018-04-14T17:44:10.379Z,3.70
2018-04-14T17:46:40.035Z,3.77
2018-04-14T17:49:08.923Z,3.97
2018-04-14T17:51:37.799Z,6.67
2018-04-14T17:54:06.714Z,7.10
2018-04-14T17:56:35.575Z,6.97
2018-04-14T17:59:05.256Z,7.27
2018-04-14T18:01:34.904Z,7.30
2018-04-14T18:04:04.603Z,4.17
2018-04-14T18:06:33.463Z,4.10
2018-04-14T18:09:02.335Z,3.07
2018-04-14T18:11:31.236Z,4.10
2018-04-14T18:14:00.915Z,4.70
2018-04-14T18:16:29.783Z,11.10
2018-04-14T18:18:58.678Z,25.33
2018-04-14T18:21:27.554Z,18.37
2018-04-14T18:23:56.447Z,9.97
2018-04-14T18:26:25.320Z,7.60
2018-04-14T18:28:54.259Z,6.70
2018-04-14T18:31:23.180Z,5.83
2018-04-14T18:33:52.070Z,5.37
2018-04-14T18:36:21.727Z,8.90
2018-04-14T18:38:50.599Z,6.93
2018-04-14T18:41:19.516Z,6.23
2018-04-14T18:43:48.387Z,6.30
2018-04-14T18:46:18.127Z,7.27
2018-04-14T18:48:47.071Z,12.43
2018-04-14T18:51:16.836Z,47.83
2018-04-14T18:53:46.765Z,32.63
2018-04-14T18:56:16.500Z,11.10
2018-04-14T18:58:47.715Z,6.37
2018-04-14T19:01:16.719Z,6.90
2018-04-14T19:03:45.583Z,7.53
2018-04-14T19:06:14.472Z,8.60
2018-04-14T19:08:43.344Z,8.00
2018-04-14T19:11:12.268Z,6.30
2018-04-14T19:13:41.940Z,6.03
2018-04-14T19:16:11.583Z,6.33
2018-04-14T19:18:41.461Z,5.30
2018-04-14T19:21:10.363Z,5.00
2018-04-14T19:23:39.244Z,6.27
2018-04-14T19:26:08.214Z,6.90
2018-04-14T19:28:37.175Z,6.17
2018-04-14T19:31:06.106Z,4.53
2018-04-14T19:33:36.589Z,3.63
2018-04-14T19:36:05.640Z,4.30
2018-04-14T19:38:34.582Z,5.80
2018-04-14T19:41:04.270Z,6.07
2018-04-14T19:43:33.215Z,5.90
2018-04-14T19:46:02.075Z,6.07
2018-04-14T19:48:31.089Z,5.83
2018-04-14T19:51:00.064Z,5.00
2018-04-14T19:53:28.935Z,9.67
2018-04-14T19:55:58.615Z,5.00
2018-04-14T19:58:27.664Z,4.27
2018-04-14T20:00:56.523Z,5.07
2018-04-14T20:03:25.404Z,4.97
2018-04-14T20:05:54.321Z,6.50
2018-04-14T20:08:23.192Z,5.83
2018-04-14T20:10:52.079Z,4.40
2018-04-14T20:13:20.992Z,3.60
2018-04-14T20:15:49.847Z,3.33
2018-04-14T20:18:19.480Z,2.70
2018-04-14T20:20:49.156Z,3.07
2018-04-14T20:23:18.013Z,2.47
2018-04-14T20:25:46.878Z,2.80
2018-04-14T20:28:16.533Z,4.07
2018-04-14T20:30:45.404Z,4.40
2018-04-14T20:33:14.271Z,3.27
2018-04-14T20:35:43.162Z,3.30
2018-04-14T20:38:12.049Z,3.10
2018-04-14T20:40:40.916Z,2.80
2018-04-14T20:43:09.825Z,3.00
2018-04-14T20:45:38.699Z,4.07
2018-04-14T20:48:08.334Z,4.67
2018-04-14T20:50:37.237Z,3.30
2018-04-14T20:53:06.892Z,2.80
2018-04-14T20:55:35.820Z,2.60
2018-04-14T20:58:05.460Z,2.50
2018-04-14T21:00:34.323Z,2.40
2018-04-14T21:03:03.213Z,2.30
2018-04-14T21:05:32.103Z,2.50
2018-04-14T21:08:01.005Z,2.60
2018-04-14T21:10:29.868Z,2.40
2018-04-14T21:12:58.755Z,2.80
2018-04-14T21:15:27.665Z,2.50
2018-04-14T21:17:56.535Z,3.53
2018-04-14T21:20:25.407Z,4.63
2018-04-14T21:22:54.311Z,3.60
2018-04-14T21:25:23.192Z,3.80
2018-04-14T21:27:52.888Z,3.30
2018-04-14T21:30:21.756Z,3.70
2018-04-14T21:32:51.408Z,3.97
2018-04-14T21:35:20.335Z,4.00
2018-04-14T21:37:49.204Z,4.03
2018-04-14T21:40:18.130Z,4.10
2018-04-14T21:42:47.765Z,3.80
2018-04-14T21:45:16.868Z,4.00
2018-04-14T21:47:45.780Z,3.83
2018-04-14T21:50:14.648Z,3.30
2018-04-14T21:52:44.274Z,3.60
2018-04-14T21:55:13.160Z,3.03
2018-04-14T21:57:42.039Z,3.20
2018-04-14T22:00:11.024Z,3.87
2018-04-14T22:02:39.892Z,3.33
2018-04-14T22:05:08.771Z,3.03
2018-04-14T22:07:37.679Z,3.20
2018-04-14T22:10:08.646Z,3.20
2018-04-14T22:12:37.608Z,2.67
2018-04-14T22:15:06.435Z,3.03
2018-04-14T22:17:35.307Z,2.83
2018-04-14T22:20:04.227Z,2.77
2018-04-14T22:22:33.103Z,3.30
2018-04-14T22:25:02.019Z,2.60
2018-04-14T22:27:30.896Z,2.97
2018-04-14T22:29:59.759Z,2.83
2018-04-14T22:32:28.662Z,3.33
2018-04-14T22:34:57.536Z,3.30
2018-04-14T22:37:26.410Z,3.10
2018-04-14T22:39:55.324Z,3.63
2018-04-14T22:42:24.186Z,2.90
2018-04-14T22:44:53.824Z,2.90
2018-04-14T22:47:22.720Z,2.90
2018-04-14T22:49:51.597Z,3.00
2018-04-14T22:52:20.468Z,2.93
2018-04-14T22:54:49.371Z,2.70
2018-04-14T22:57:18.240Z,2.90
2018-04-14T22:59:47.100Z,2.83
2018-04-14T23:02:15.996Z,3.40
2018-04-14T23:04:45.640Z,3.30
2018-04-14T23:07:14.499Z,3.80
2018-04-14T23:09:43.393Z,3.10
2018-04-14T23:12:12.335Z,3.50
2018-04-14T23:14:41.191Z,3.20
2018-04-14T23:17:10.812Z,3.00
2018-04-14T23:19:39.785Z,2.77
2018-04-14T23:22:08.659Z,3.10
2018-04-14T23:24:37.538Z,3.10
2018-04-14T23:27:06.456Z,3.20
2018-04-14T23:29:35.335Z,2.80
2018-04-14T23:32:04.196Z,2.90
2018-04-14T23:34:33.079Z,3.10
2018-04-14T23:37:01.936Z,3.23
2018-04-14T23:39:31.283Z,3.17
2018-04-14T23:42:00.152Z,2.60
2018-04-14T23:44:29.008Z,3.03
2018-04-14T23:46:58.659Z,3.23
2018-04-14T23:49:27.539Z,3.30
2018-04-14T23:51:56.406Z,2.90
2018-04-14T23:54:26.068Z,3.00
2018-04-14T23:56:54.924Z,2.93
2018-04-14T23:59:24.547Z,3.03
